createdAt,value
2023-03-23T16:02:24.022Z,2.30
2023-03-23T16:09:08.078Z,2.17
2023-03-23T16:15:50.686Z,2.00
2023-03-23T16:22:32.973Z,2.20
2023-03-23T16:29:28.968Z,2.22
2023-03-23T16:36:19.308Z,2.30
2023-03-23T16:43:01.676Z,2.20
2023-03-23T16:49:51.696Z,2.20
2023-03-23T16:56:34.027Z,2.20
2023-03-23T17:03:18.490Z,2.15
2023-03-23T17:10:00.936Z,2.45
2023-03-23T17:16:43.299Z,3.15
2023-03-23T17:23:26.002Z,2.38
2023-03-23T17:30:10.776Z,2.72
2023-03-23T17:36:53.341Z,2.17
2023-03-23T17:43:36.321Z,2.13
2023-03-23T17:50:19.417Z,1.90
2023-03-23T17:57:04.036Z,2.35
2023-03-23T18:03:46.452Z,2.20
2023-03-23T18:10:28.806Z,2.33
2023-03-23T18:17:11.210Z,2.20
2023-03-23T18:23:59.175Z,2.22
2023-03-23T18:30:43.429Z,2.30
2023-03-23T18:37:26.162Z,2.45
2023-03-23T18:44:08.515Z,2.08
2023-03-23T18:50:54.225Z,2.00
2023-03-23T18:57:39.108Z,2.55
2023-03-23T19:04:22.374Z,2.03
2023-03-23T19:11:05.486Z,2.38
2023-03-23T19:17:48.016Z,2.28
2023-03-23T19:24:30.427Z,3.08
2023-03-23T19:31:15.511Z,2.63
2023-03-23T19:37:57.843Z,2.40
2023-03-23T19:44:41.480Z,2.05
2023-03-23T19:51:31.756Z,2.10
2023-03-23T19:58:14.192Z,2.20
2023-03-23T20:04:57.022Z,1.98
2023-03-23T20:11:40.251Z,2.35
2023-03-23T20:18:22.827Z,2.50
2023-03-23T20:25:07.344Z,2.42
2023-03-23T20:31:51.638Z,2.30
2023-03-23T20:38:36.257Z,2.50
2023-03-23T20:45:18.664Z,2.53
2023-03-23T20:52:01.894Z,2.80
2023-03-23T20:58:44.492Z,2.72
2023-03-23T21:05:26.953Z,2.60
2023-03-23T21:12:10.484Z,2.63
2023-03-23T21:18:52.838Z,2.70
2023-03-23T21:25:36.857Z,2.70
2023-03-23T21:32:19.215Z,2.97
2023-03-23T21:39:02.156Z,4.18
2023-03-23T21:45:45.253Z,2.83
2023-03-23T21:52:28.040Z,2.53
2023-03-23T21:59:10.893Z,3.22
2023-03-23T22:05:54.656Z,3.00
2023-03-23T22:12:37.433Z,3.03
2023-03-23T22:19:20.556Z,2.78
2023-03-23T22:26:04.478Z,3.55
2023-03-23T22:32:47.205Z,2.85
2023-03-23T22:39:29.611Z,3.17
2023-03-23T22:46:12.257Z,3.88
2023-03-23T22:52:54.655Z,3.83
2023-03-23T22:59:37.071Z,3.40
2023-03-23T23:06:20.599Z,3.20
2023-03-23T23:13:03.048Z,3.25
2023-03-23T23:19:45.516Z,3.03
2023-03-23T23:26:27.920Z,3.03
2023-03-23T23:33:10.450Z,3.35
2023-03-23T23:39:52.828Z,3.20
2023-03-23T23:46:35.305Z,2.97
2023-03-23T23:53:22.923Z,3.47
